createdAt,value
2017-03-24T00:00:01.773Z,1020.02
2017-03-24T00:01:12.769Z,1019.98
2017-03-24T00:02:23.804Z,1020.03
2017-03-24T00:03:35.010Z,1020
2017-03-24T00:04:46.011Z,1020.05
2017-03-24T00:05:57.246Z,1020.08
2017-03-24T00:07:08.234Z,1020.08
2017-03-24T00:08:19.229Z,1020.14
2017-03-24T00:09:30.266Z,1020.22
2017-03-24T00:10:41.264Z,1020.21
2017-03-24T00:11:52.257Z,1020.21
2017-03-24T00:13:03.252Z,1020.23
2017-03-24T00:14:14.453Z,1020.25
2017-03-24T00:15:25.653Z,1020.26
2017-03-24T00:16:37.101Z,1020.33
2017-03-24T00:17:48.090Z,1020.33
2017-03-24T00:18:59.083Z,1020.32
2017-03-24T00:20:10.087Z,1020.35
2017-03-24T00:21:21.083Z,1020.36
2017-03-24T00:22:32.071Z,1020.39
2017-03-24T00:23:43.125Z,1020.34
2017-03-24T00:24:54.330Z,1020.43
2017-03-24T00:26:05.340Z,1020.42
2017-03-24T00:27:16.579Z,1020.43
2017-03-24T00:28:27.578Z,1020.43
2017-03-24T00:29:38.569Z,1020.51
2017-03-24T00:30:49.771Z,1020.5
2017-03-24T00:32:00.965Z,1020.56
2017-03-24T00:33:11.967Z,1020.57
2017-03-24T00:34:22.961Z,1020.57
2017-03-24T00:35:33.951Z,1020.6
2017-03-24T00:36:44.948Z,1020.58
2017-03-24T00:37:56.137Z,1020.63
2017-03-24T00:39:07.186Z,1020.6
2017-03-24T00:40:18.188Z,1020.61
2017-03-24T00:41:29.174Z,1020.64
2017-03-24T00:42:40.170Z,1020.66
2017-03-24T00:43:51.170Z,1020.69
2017-03-24T00:45:02.416Z,1020.66
2017-03-24T00:46:13.405Z,1020.67
2017-03-24T00:47:24.403Z,1020.69
2017-03-24T00:48:35.404Z,1020.72
2017-03-24T00:49:46.405Z,1020.78
2017-03-24T00:50:57.420Z,1020.74
2017-03-24T00:52:08.406Z,1020.7
2017-03-24T00:53:19.598Z,1020.74
2017-03-24T00:54:30.842Z,1020.71
2017-03-24T00:55:41.831Z,1020.69
2017-03-24T00:56:52.817Z,1020.68
2017-03-24T00:58:03.856Z,1020.63
2017-03-24T00:59:15.065Z,1020.6
2017-03-24T01:00:26.065Z,1020.59
2017-03-24T01:01:37.057Z,1020.53
2017-03-24T01:02:48.250Z,1020.56
2017-03-24T01:03:59.256Z,1020.56
2017-03-24T01:05:10.703Z,1020.55
2017-03-24T01:06:21.691Z,1020.6
2017-03-24T01:07:32.681Z,1020.55
2017-03-24T01:08:43.675Z,1020.57
2017-03-24T01:09:54.726Z,1020.59
2017-03-24T01:11:05.724Z,1020.51
2017-03-24T01:12:16.717Z,1020.51
2017-03-24T01:13:27.708Z,1020.49
2017-03-24T01:14:39.105Z,1020.46
2017-03-24T01:15:50.091Z,1020.47
2017-03-24T01:17:01.283Z,1020.44
2017-03-24T01:18:12.280Z,1020.44
2017-03-24T01:19:23.281Z,1020.41
2017-03-24T01:20:34.274Z,1020.38
2017-03-24T01:21:45.266Z,1020.39
2017-03-24T01:22:56.452Z,1020.37
2017-03-24T01:24:07.451Z,1020.38
2017-03-24T01:25:18.641Z,1020.41
2017-03-24T01:26:29.831Z,1020.38
2017-03-24T01:27:40.862Z,1020.36
2017-03-24T01:28:51.852Z,1020.39
2017-03-24T01:30:02.902Z,1020.4
2017-03-24T01:31:14.101Z,1020.44
2017-03-24T01:32:25.299Z,1020.45
2017-03-24T01:33:36.299Z,1020.53
2017-03-24T01:34:47.906Z,1020.5
2017-03-24T01:35:59.102Z,1020.48
2017-03-24T01:37:10.342Z,1020.55
2017-03-24T01:38:21.336Z,1020.52
2017-03-24T01:39:32.334Z,1020.58
2017-03-24T01:40:43.326Z,1020.6
2017-03-24T01:41:54.515Z,1020.66
2017-03-24T01:43:05.544Z,1020.66
2017-03-24T01:44:16.740Z,1020.61
2017-03-24T01:45:27.743Z,1020.63
2017-03-24T01:46:38.943Z,1020.64
2017-03-24T01:47:49.986Z,1020.65
2017-03-24T01:49:01.185Z,1020.63
2017-03-24T01:50:12.183Z,1020.62
2017-03-24T01:51:23.168Z,1020.67
2017-03-24T01:52:34.158Z,1020.7
2017-03-24T01:53:45.149Z,1020.67
2017-03-24T01:54:56.145Z,1020.71
2017-03-24T01:56:07.150Z,1020.73
2017-03-24T01:57:18.352Z,1020.74
2017-03-24T01:58:29.589Z,1020.78
2017-03-24T01:59:40.786Z,1020.78
2017-03-24T02:00:51.818Z,1020.81
2017-03-24T02:02:02.813Z,1020.79
2017-03-24T02:03:14.215Z,1020.84
2017-03-24T02:04:25.213Z,1020.8
2017-03-24T02:05:36.418Z,1020.84
2017-03-24T02:06:47.404Z,1020.87
2017-03-24T02:07:58.392Z,1020.86
2017-03-24T02:09:09.438Z,1020.89
2017-03-24T02:10:20.483Z,1020.89
2017-03-24T02:11:31.474Z,1020.87
2017-03-24T02:12:42.469Z,1020.94
2017-03-24T02:13:53.466Z,1020.93
2017-03-24T02:15:04.464Z,1020.98
2017-03-24T02:16:15.464Z,1021.03
2017-03-24T02:17:26.441Z,1021.07
2017-03-24T02:18:37.639Z,1021.07
2017-03-24T02:19:48.677Z,1021.08
2017-03-24T02:21:00.074Z,1021.13
2017-03-24T02:22:11.059Z,1021.12
2017-03-24T02:23:22.051Z,1021.11
2017-03-24T02:24:33.130Z,1021.15
2017-03-24T02:25:44.115Z,1021.06
2017-03-24T02:26:55.098Z,1021.14
2017-03-24T02:28:06.081Z,1021.25
2017-03-24T02:29:17.074Z,1021.19
2017-03-24T02:30:28.121Z,1021.18
2017-03-24T02:31:39.119Z,1021.24
2017-03-24T02:32:50.107Z,1021.33
2017-03-24T02:34:01.111Z,1021.31
2017-03-24T02:35:12.103Z,1021.28
2017-03-24T02:36:23.299Z,1021.35
2017-03-24T02:37:34.490Z,1021.3
2017-03-24T02:38:45.494Z,1021.34
2017-03-24T02:39:56.510Z,1021.39
2017-03-24T02:41:07.567Z,1021.37
2017-03-24T02:42:18.556Z,1021.41
2017-03-24T02:43:29.551Z,1021.49
2017-03-24T02:44:40.550Z,1021.51
2017-03-24T02:45:51.533Z,1021.52
2017-03-24T02:47:02.776Z,1021.57
2017-03-24T02:48:13.762Z,1021.57
2017-03-24T02:49:24.763Z,1021.6
2017-03-24T02:50:35.761Z,1021.6
2017-03-24T02:51:46.752Z,1021.61
2017-03-24T02:52:57.746Z,1021.6
2017-03-24T02:54:08.731Z,1021.6
2017-03-24T02:55:19.756Z,1021.62
2017-03-24T02:56:30.749Z,1021.63
2017-03-24T02:57:41.980Z,1021.65
2017-03-24T02:58:53.036Z,1021.7
2017-03-24T03:00:04.228Z,1021.71
2017-03-24T03:01:15.219Z,1021.72
2017-03-24T03:02:26.209Z,1021.7
2017-03-24T03:03:37.214Z,1021.74
2017-03-24T03:04:48.197Z,1021.75
2017-03-24T03:05:59.403Z,1021.8
2017-03-24T03:07:10.395Z,1021.81
2017-03-24T03:08:21.431Z,1021.81
2017-03-24T03:09:32.422Z,1021.89
2017-03-24T03:10:43.609Z,1021.9
2017-03-24T03:11:54.599Z,1021.95
2017-03-24T03:13:05.584Z,1021.96
2017-03-24T03:14:16.783Z,1021.89
2017-03-24T03:15:27.780Z,1021.9
2017-03-24T03:16:38.977Z,1021.91
2017-03-24T03:17:49.968Z,1021.88
2017-03-24T03:19:01.011Z,1021.89
2017-03-24T03:20:12.011Z,1021.92
2017-03-24T03:21:23.201Z,1021.94
2017-03-24T03:22:34.193Z,1021.95
2017-03-24T03:23:45.191Z,1021.89
2017-03-24T03:24:56.195Z,1021.93
2017-03-24T03:26:07.198Z,1021.92
2017-03-24T03:27:18.196Z,1021.95
2017-03-24T03:28:29.390Z,1021.99
2017-03-24T03:29:40.692Z,1021.92
2017-03-24T03:30:51.689Z,1021.92
2017-03-24T03:32:02.672Z,1021.99
2017-03-24T03:33:13.665Z,1022.02
2017-03-24T03:34:24.655Z,1022.03
2017-03-24T03:35:35.644Z,1022.04
2017-03-24T03:36:47.035Z,1021.98
2017-03-24T03:37:58.033Z,1022.03
2017-03-24T03:39:09.043Z,1022.07
2017-03-24T03:40:20.029Z,1022.05
2017-03-24T03:41:31.029Z,1022.01
2017-03-24T03:42:42.018Z,1022.04
2017-03-24T03:43:53.215Z,1022.05
2017-03-24T03:45:04.210Z,1022.08
2017-03-24T03:46:15.197Z,1022.1
2017-03-24T03:47:26.430Z,1022.15
2017-03-24T03:48:37.631Z,1022.16
2017-03-24T03:49:48.628Z,1022.23
2017-03-24T03:50:59.824Z,1022.22
2017-03-24T03:52:10.829Z,1022.31
2017-03-24T03:53:22.028Z,1022.3
2017-03-24T03:54:33.014Z,1022.3
2017-03-24T03:55:44.019Z,1022.34
2017-03-24T03:56:55.252Z,1022.37
2017-03-24T03:58:06.237Z,1022.32
2017-03-24T03:59:17.227Z,1022.4
2017-03-24T04:00:28.222Z,1022.4
2017-03-24T04:01:39.213Z,1022.43
2017-03-24T04:02:50.195Z,1022.4
2017-03-24T04:04:01.403Z,1022.45
2017-03-24T04:05:12.396Z,1022.42
2017-03-24T04:06:23.389Z,1022.47
2017-03-24T04:07:34.438Z,1022.44
2017-03-24T04:08:45.437Z,1022.4
2017-03-24T04:09:56.441Z,1022.48
2017-03-24T04:11:07.427Z,1022.47
2017-03-24T04:12:18.414Z,1022.54
2017-03-24T04:13:29.601Z,1022.54
2017-03-24T04:14:40.607Z,1022.48
2017-03-24T04:15:51.797Z,1022.47
2017-03-24T04:17:02.988Z,1022.48
2017-03-24T04:18:14.027Z,1022.5
2017-03-24T04:19:25.035Z,1022.51
2017-03-24T04:20:36.029Z,1022.48
2017-03-24T04:21:47.020Z,1022.47
2017-03-24T04:22:58.012Z,1022.47
2017-03-24T04:24:09.215Z,1022.4
2017-03-24T04:25:20.216Z,1022.41
2017-03-24T04:26:31.197Z,1022.44
2017-03-24T04:27:42.191Z,1022.43
2017-03-24T04:28:53.190Z,1022.43
2017-03-24T04:30:04.175Z,1022.38
2017-03-24T04:31:15.168Z,1022.43
2017-03-24T04:32:26.155Z,1022.39
2017-03-24T04:33:37.147Z,1022.37
2017-03-24T04:34:48.349Z,1022.38
2017-03-24T04:35:59.393Z,1022.34
2017-03-24T04:37:10.575Z,1022.32
2017-03-24T04:38:21.576Z,1022.3
2017-03-24T04:39:32.765Z,1022.29
2017-03-24T04:40:43.749Z,1022.25
2017-03-24T04:41:54.743Z,1022.26
2017-03-24T04:43:05.734Z,1022.31
2017-03-24T04:44:16.728Z,1022.3
2017-03-24T04:45:27.777Z,1022.35
2017-03-24T04:46:38.963Z,1022.35
2017-03-24T04:47:49.956Z,1022.34
2017-03-24T04:49:00.958Z,1022.37
2017-03-24T04:50:11.974Z,1022.41
2017-03-24T04:51:22.960Z,1022.42
2017-03-24T04:52:33.948Z,1022.42
2017-03-24T04:53:45.145Z,1022.45
2017-03-24T04:54:56.342Z,1022.49
2017-03-24T04:56:07.589Z,1022.47
2017-03-24T04:57:18.585Z,1022.5
2017-03-24T04:58:29.782Z,1022.54
2017-03-24T04:59:40.788Z,1022.55
2017-03-24T05:00:51.779Z,1022.57
2017-03-24T05:02:02.968Z,1022.67
2017-03-24T05:03:13.962Z,1022.63
2017-03-24T05:04:25.166Z,1022.69
2017-03-24T05:05:36.165Z,1022.63
2017-03-24T05:06:47.199Z,1022.66
2017-03-24T05:07:58.184Z,1022.65
2017-03-24T05:09:09.183Z,1022.61
2017-03-24T05:10:20.177Z,1022.63
2017-03-24T05:11:31.173Z,1022.68
2017-03-24T05:12:42.360Z,1022.65
2017-03-24T05:13:53.348Z,1022.69
2017-03-24T05:15:04.334Z,1022.74
2017-03-24T05:16:15.525Z,1022.85
2017-03-24T05:17:26.519Z,1022.87
2017-03-24T05:18:37.550Z,1022.89
2017-03-24T05:19:48.752Z,1022.86
2017-03-24T05:20:59.797Z,1022.9
2017-03-24T05:22:10.796Z,1022.89
2017-03-24T05:23:21.991Z,1022.89
2017-03-24T05:24:33.187Z,1022.92
2017-03-24T05:25:44.166Z,1022.89
2017-03-24T05:26:55.155Z,1022.96
2017-03-24T05:28:06.207Z,1022.93
2017-03-24T05:29:17.212Z,1022.97
2017-03-24T05:30:28.205Z,1023.03
2017-03-24T05:31:39.231Z,1023.07
2017-03-24T05:32:50.213Z,1023.06
2017-03-24T05:34:01.215Z,1023.04
2017-03-24T05:35:12.617Z,1023.03
2017-03-24T05:36:23.606Z,1022.98
2017-03-24T05:37:34.802Z,1023.01
2017-03-24T05:38:46.054Z,1023.03
2017-03-24T05:39:57.306Z,1022.99
2017-03-24T05:41:08.303Z,1023.07
2017-03-24T05:42:19.293Z,1023.03
2017-03-24T05:43:30.490Z,1023.07
2017-03-24T05:44:41.483Z,1023.06
2017-03-24T05:45:52.499Z,1023.03
2017-03-24T05:47:03.507Z,1022.98
2017-03-24T05:48:14.705Z,1022.96
2017-03-24T05:49:25.963Z,1022.99
2017-03-24T05:50:36.966Z,1022.94
2017-03-24T05:51:48.157Z,1022.96
2017-03-24T05:52:59.156Z,1022.96
2017-03-24T05:54:10.149Z,1022.94
2017-03-24T05:55:21.203Z,1022.98
2017-03-24T05:56:32.433Z,1023
2017-03-24T05:57:43.424Z,1023.06
2017-03-24T05:58:54.429Z,1023
2017-03-24T06:00:05.627Z,1023.03
2017-03-24T06:01:16.609Z,1023.02
2017-03-24T06:02:27.601Z,1022.99
2017-03-24T06:03:38.599Z,1023
2017-03-24T06:04:49.585Z,1023.02
2017-03-24T06:06:00.975Z,1023.04
2017-03-24T06:07:12.170Z,1023.07
2017-03-24T06:08:23.173Z,1023.08
2017-03-24T06:09:34.379Z,1023.07
2017-03-24T06:10:45.367Z,1023.08
2017-03-24T06:11:56.363Z,1023.06
2017-03-24T06:13:07.606Z,1023.11
2017-03-24T06:14:18.605Z,1023.19
2017-03-24T06:15:29.795Z,1023.21
2017-03-24T06:16:40.987Z,1023.22
2017-03-24T06:17:52.023Z,1023.23
2017-03-24T06:19:03.029Z,1023.36
2017-03-24T06:20:14.231Z,1023.35
2017-03-24T06:21:25.217Z,1023.41
2017-03-24T06:22:36.469Z,1023.44
2017-03-24T06:23:47.477Z,1023.4
2017-03-24T06:24:58.683Z,1023.38
2017-03-24T06:26:09.693Z,1023.42
2017-03-24T06:27:20.883Z,1023.45
2017-03-24T06:28:31.877Z,1023.45
2017-03-24T06:29:42.874Z,1023.48
2017-03-24T06:30:54.068Z,1023.49
2017-03-24T06:32:05.055Z,1023.54
2017-03-24T06:33:16.303Z,1023.49
2017-03-24T06:34:27.495Z,1023.59
2017-03-24T06:35:38.511Z,1023.59
2017-03-24T06:36:49.503Z,1023.62
2017-03-24T06:38:00.495Z,1023.59
2017-03-24T06:39:11.734Z,1023.65
2017-03-24T06:40:22.729Z,1023.62
2017-03-24T06:41:33.921Z,1023.62
2017-03-24T06:42:44.912Z,1023.66
2017-03-24T06:43:55.917Z,1023.65
2017-03-24T06:45:06.915Z,1023.69
2017-03-24T06:46:18.113Z,1023.67
2017-03-24T06:47:29.101Z,1023.8
2017-03-24T06:48:40.096Z,1023.78
2017-03-24T06:49:51.095Z,1023.83
2017-03-24T06:51:02.107Z,1023.9
2017-03-24T06:52:13.106Z,1023.95
2017-03-24T06:53:24.104Z,1023.98
2017-03-24T06:54:35.108Z,1023.98
2017-03-24T06:55:46.102Z,1024.06
2017-03-24T06:56:57.331Z,1024.08
2017-03-24T06:58:08.329Z,1024.06
2017-03-24T06:59:19.333Z,1024.03
2017-03-24T07:00:30.333Z,1024.15
2017-03-24T07:01:41.377Z,1024.14
2017-03-24T07:02:52.374Z,1024.16
2017-03-24T07:04:03.375Z,1024.16
2017-03-24T07:05:14.580Z,1024.19
2017-03-24T07:06:25.691Z,1024.23
2017-03-24T07:07:36.689Z,1024.21
2017-03-24T07:08:47.796Z,1024.26
2017-03-24T07:09:59.006Z,1024.29
2017-03-24T07:11:10.212Z,1024.21
2017-03-24T07:12:21.415Z,1024.25
2017-03-24T07:13:32.414Z,1024.23
2017-03-24T07:14:43.417Z,1024.17
2017-03-24T07:15:54.410Z,1024.19
2017-03-24T07:17:05.458Z,1024.16
2017-03-24T07:18:16.681Z,1024.16
2017-03-24T07:19:27.683Z,1024.17
2017-03-24T07:20:38.685Z,1024.14
2017-03-24T07:21:49.681Z,1024.16
2017-03-24T07:23:00.688Z,1024.11
2017-03-24T07:24:11.900Z,1024.12
2017-03-24T07:25:22.909Z,1024.12
2017-03-24T07:26:33.900Z,1024.1
2017-03-24T07:27:44.899Z,1024.09
2017-03-24T07:28:55.910Z,1024.09
2017-03-24T07:30:06.923Z,1024.05
2017-03-24T07:31:17.927Z,1024.05
2017-03-24T07:32:29.129Z,1024.03
2017-03-24T07:33:40.142Z,1024.05
2017-03-24T07:34:51.138Z,1023.99
2017-03-24T07:36:02.360Z,1024.05
2017-03-24T07:37:13.557Z,1024.04
2017-03-24T07:38:24.558Z,1024.27
2017-03-24T07:39:35.602Z,1024.52
2017-03-24T07:40:46.788Z,1024.68
2017-03-24T07:41:57.776Z,1024.6
2017-03-24T07:43:08.821Z,1024.1
2017-03-24T07:44:20.042Z,1023.93
2017-03-24T07:45:31.060Z,1023.89
2017-03-24T07:46:42.068Z,1023.81
2017-03-24T07:47:53.065Z,1023.86
2017-03-24T07:49:04.118Z,1023.82
2017-03-24T07:50:15.119Z,1023.8
2017-03-24T07:51:26.109Z,1023.84
2017-03-24T07:52:37.105Z,1023.8
2017-03-24T07:53:48.313Z,1023.88
2017-03-24T07:54:59.534Z,1023.85
2017-03-24T07:56:10.536Z,1023.9
2017-03-24T07:57:21.543Z,1023.92
2017-03-24T07:58:32.541Z,1023.96
2017-03-24T07:59:43.785Z,1024.02
2017-03-24T08:00:54.972Z,1024.07
2017-03-24T08:02:05.963Z,1024
2017-03-24T08:03:17.164Z,1024.05
2017-03-24T08:04:28.357Z,1024.07
2017-03-24T08:05:39.350Z,1024.11
2017-03-24T08:06:50.343Z,1024.14
2017-03-24T08:08:01.537Z,1024.09
2017-03-24T08:09:12.538Z,1024.16
2017-03-24T08:10:23.736Z,1024.12
2017-03-24T08:11:34.738Z,1024.11
2017-03-24T08:12:45.728Z,1024.1
2017-03-24T08:13:56.721Z,1024.13
2017-03-24T08:15:07.712Z,1024.12
2017-03-24T08:16:18.766Z,1024.07
2017-03-24T08:17:29.974Z,1024
2017-03-24T08:18:40.979Z,1024.05
2017-03-24T08:19:51.975Z,1024.09
2017-03-24T08:21:02.974Z,1024.07
2017-03-24T08:22:14.029Z,1024.09
2017-03-24T08:23:25.029Z,1024.08
2017-03-24T08:24:36.032Z,1024.12
2017-03-24T08:25:47.038Z,1024.13
2017-03-24T08:26:58.042Z,1024.13
2017-03-24T08:28:09.043Z,1024.11
2017-03-24T08:29:20.048Z,1024.18
2017-03-24T08:30:31.055Z,1024.2
2017-03-24T08:31:42.314Z,1024.22
2017-03-24T08:32:53.516Z,1024.26
2017-03-24T08:34:04.717Z,1024.36
2017-03-24T08:35:15.921Z,1024.46
2017-03-24T08:36:26.929Z,1024.5
2017-03-24T08:37:37.952Z,1024.62
2017-03-24T08:38:48.950Z,1024.75
2017-03-24T08:39:59.957Z,1024.88
2017-03-24T08:41:10.954Z,1024.95
2017-03-24T08:42:22.218Z,1024.96
2017-03-24T08:43:33.222Z,1025.17
2017-03-24T08:44:44.234Z,1025.16
2017-03-24T08:45:55.237Z,1025.22
2017-03-24T08:47:06.240Z,1025.26
2017-03-24T08:48:17.454Z,1025.23
2017-03-24T08:49:28.857Z,1025.31
2017-03-24T08:50:40.062Z,1025.2
2017-03-24T08:51:51.071Z,1025.26
2017-03-24T08:53:02.076Z,1025.16
2017-03-24T08:54:13.079Z,1025.18
2017-03-24T08:55:24.285Z,1025.15
2017-03-24T08:56:35.285Z,1025.07
2017-03-24T08:57:46.285Z,1025.04
2017-03-24T08:58:57.487Z,1024.96
2017-03-24T09:00:08.543Z,1024.86
2017-03-24T09:01:19.556Z,1024.83
2017-03-24T09:02:30.561Z,1024.78
2017-03-24T09:03:41.558Z,1024.86
2017-03-24T09:04:52.816Z,1024.78
2017-03-24T09:06:04.026Z,1024.77
2017-03-24T09:07:15.031Z,1024.75
2017-03-24T09:08:26.031Z,1024.74
2017-03-24T09:09:37.087Z,1024.83
2017-03-24T09:10:48.109Z,1024.99
2017-03-24T09:11:59.109Z,1025.3
2017-03-24T09:13:10.314Z,1025.22
2017-03-24T09:14:21.316Z,1025.17
2017-03-24T09:15:32.520Z,1025.22
2017-03-24T09:16:43.527Z,1025.61
2017-03-24T09:17:54.522Z,1025.81
2017-03-24T09:19:05.526Z,1025.66
2017-03-24T09:20:16.623Z,1025.28
2017-03-24T09:21:27.628Z,1025.21
2017-03-24T09:22:38.637Z,1025.21
2017-03-24T09:23:49.687Z,1025.2
2017-03-24T09:25:00.888Z,1025.25
2017-03-24T09:26:11.890Z,1025.5
2017-03-24T09:27:22.887Z,1025.5
2017-03-24T09:28:33.889Z,1025.44
2017-03-24T09:29:45.097Z,1025.48
2017-03-24T09:30:56.099Z,1025.66
2017-03-24T09:32:07.098Z,1025.53
2017-03-24T09:33:18.299Z,1025.55
2017-03-24T09:34:29.304Z,1025.6
2017-03-24T09:35:40.326Z,1025.62
2017-03-24T09:36:51.333Z,1025.69
2017-03-24T09:38:02.586Z,1025.71
2017-03-24T09:39:13.593Z,1025.74
2017-03-24T09:40:24.604Z,1025.77
2017-03-24T09:41:35.602Z,1025.89
2017-03-24T09:42:46.611Z,1026.03
2017-03-24T09:43:57.816Z,1026.08
2017-03-24T09:45:08.831Z,1025.97
2017-03-24T09:46:20.044Z,1026.03
2017-03-24T09:47:31.107Z,1026.11
2017-03-24T09:48:42.318Z,1026.08
2017-03-24T09:49:53.321Z,1026.14
2017-03-24T09:51:04.357Z,1026.13
2017-03-24T09:52:15.360Z,1026.34
2017-03-24T09:53:26.371Z,1026.14
2017-03-24T09:54:37.377Z,1026.29
2017-03-24T09:55:48.383Z,1026.38
2017-03-24T09:56:59.582Z,1026.3
2017-03-24T09:58:10.631Z,1026.24
2017-03-24T09:59:21.635Z,1026.42
2017-03-24T10:00:32.840Z,1026.32
2017-03-24T10:01:43.840Z,1026.24
2017-03-24T10:02:54.846Z,1026.36
2017-03-24T10:04:06.047Z,1026.38
2017-03-24T10:05:17.048Z,1026.3
2017-03-24T10:06:28.059Z,1026.21
2017-03-24T10:07:39.066Z,1026.26
2017-03-24T10:08:50.274Z,1026.28
2017-03-24T10:10:01.564Z,1026.23
2017-03-24T10:11:12.774Z,1026.32
2017-03-24T10:12:23.782Z,1026.34
2017-03-24T10:13:34.784Z,1026.24
2017-03-24T10:14:45.790Z,1026.25
2017-03-24T10:15:56.791Z,1026.24
2017-03-24T10:17:07.799Z,1026.33
2017-03-24T10:18:18.812Z,1026.35
2017-03-24T10:19:29.867Z,1026.22
2017-03-24T10:20:40.874Z,1026.21
2017-03-24T10:21:51.881Z,1026.19
2017-03-24T10:23:02.880Z,1026.31
2017-03-24T10:24:14.082Z,1026.29
2017-03-24T10:25:25.280Z,1026.34
2017-03-24T10:26:36.295Z,1026.41
2017-03-24T10:27:47.493Z,1026.37
2017-03-24T10:28:58.499Z,1026.46
2017-03-24T10:30:09.701Z,1026.53
2017-03-24T10:31:20.702Z,1026.44
2017-03-24T10:32:31.702Z,1026.26
2017-03-24T10:33:42.701Z,1026.44
2017-03-24T10:34:53.745Z,1026.44
2017-03-24T10:36:04.756Z,1026.44
2017-03-24T10:37:15.769Z,1026.42
2017-03-24T10:38:26.976Z,1026.55
2017-03-24T10:39:37.984Z,1026.47
2017-03-24T10:40:48.986Z,1026.47
2017-03-24T10:41:59.995Z,1026.53
2017-03-24T10:43:10.991Z,1026.54
2017-03-24T10:44:22.002Z,1026.44
2017-03-24T10:45:33.011Z,1026.44
2017-03-24T10:46:44.016Z,1026.51
2017-03-24T10:47:55.019Z,1026.52
2017-03-24T10:49:06.024Z,1026.56
2017-03-24T10:50:17.029Z,1026.55
2017-03-24T10:51:28.039Z,1026.6
2017-03-24T10:52:39.289Z,1026.68
2017-03-24T10:53:50.296Z,1026.66
2017-03-24T10:55:01.496Z,1026.73
2017-03-24T10:56:12.502Z,1026.65
2017-03-24T10:57:23.915Z,1026.75
2017-03-24T10:58:34.917Z,1026.64
2017-03-24T10:59:45.919Z,1026.62
2017-03-24T11:00:56.912Z,1026.59
2017-03-24T11:02:07.966Z,1026.64
2017-03-24T11:03:18.973Z,1026.65
2017-03-24T11:04:29.972Z,1026.65
2017-03-24T11:05:40.970Z,1026.66
2017-03-24T11:06:51.979Z,1026.81
2017-03-24T11:08:02.988Z,1026.76
2017-03-24T11:09:13.989Z,1026.73
2017-03-24T11:10:25.002Z,1026.65
2017-03-24T11:11:36.002Z,1026.62
2017-03-24T11:12:47.247Z,1026.54
2017-03-24T11:13:58.458Z,1026.55
2017-03-24T11:15:09.463Z,1026.49
2017-03-24T11:16:20.459Z,1026.5
2017-03-24T11:17:31.465Z,1026.55
2017-03-24T11:18:42.470Z,1026.52
2017-03-24T11:19:53.472Z,1026.54
2017-03-24T11:21:04.671Z,1026.52
2017-03-24T11:22:15.665Z,1026.65
2017-03-24T11:23:26.873Z,1026.54
2017-03-24T11:24:37.868Z,1026.45
2017-03-24T11:25:49.073Z,1026.41
2017-03-24T11:27:00.075Z,1026.41
2017-03-24T11:28:11.078Z,1026.38
2017-03-24T11:29:22.081Z,1026.35
2017-03-24T11:30:33.140Z,1026.35
2017-03-24T11:31:44.138Z,1026.36
2017-03-24T11:32:55.139Z,1026.42
2017-03-24T11:34:06.151Z,1026.42
2017-03-24T11:35:17.155Z,1026.37
2017-03-24T11:36:28.162Z,1026.32
2017-03-24T11:37:39.167Z,1026.36
2017-03-24T11:38:50.180Z,1026.35
2017-03-24T11:40:01.239Z,1026.31
2017-03-24T11:41:12.241Z,1026.27
2017-03-24T11:42:23.241Z,1026.23
2017-03-24T11:43:34.252Z,1026.25
2017-03-24T11:44:45.251Z,1026.29
2017-03-24T11:45:56.251Z,1026.24
2017-03-24T11:47:07.272Z,1026.27
2017-03-24T11:48:18.269Z,1026.25
2017-03-24T11:49:29.275Z,1026.18
2017-03-24T11:50:40.320Z,1026.22
2017-03-24T11:51:51.318Z,1026.27
2017-03-24T11:53:02.330Z,1026.29
2017-03-24T11:54:13.538Z,1026.25
2017-03-24T11:55:24.735Z,1026.28
2017-03-24T11:56:35.732Z,1026.28
2017-03-24T11:57:46.742Z,1026.33
2017-03-24T11:58:57.741Z,1026.35
2017-03-24T12:00:08.746Z,1026.35
2017-03-24T12:01:19.942Z,1026.28
2017-03-24T12:02:30.992Z,1026.3
2017-03-24T12:03:42.393Z,1026.27
2017-03-24T12:04:53.404Z,1026.25
2017-03-24T12:06:04.415Z,1026.3
2017-03-24T12:07:15.815Z,1026.37
2017-03-24T12:08:26.821Z,1026.38
2017-03-24T12:09:37.814Z,1026.51
2017-03-24T12:10:48.817Z,1026.51
2017-03-24T12:12:00.272Z,1026.71
2017-03-24T12:13:11.278Z,1027.17
2017-03-24T12:14:22.280Z,1027.26
2017-03-24T12:15:33.492Z,1027.14
2017-03-24T12:16:44.493Z,1026.99
2017-03-24T12:17:55.493Z,1026.86
2017-03-24T12:19:06.702Z,1026.82
2017-03-24T12:20:17.898Z,1026.66
2017-03-24T12:21:28.899Z,1026.48
2017-03-24T12:22:40.141Z,1026.26
2017-03-24T12:23:51.138Z,1026.1
2017-03-24T12:25:02.128Z,1025.96
2017-03-24T12:26:13.121Z,1025.96
2017-03-24T12:27:24.165Z,1025.95
2017-03-24T12:28:35.210Z,1025.93
2017-03-24T12:29:46.211Z,1025.9
2017-03-24T12:30:57.211Z,1025.9
2017-03-24T12:32:08.618Z,1025.93
2017-03-24T12:33:19.664Z,1025.87
2017-03-24T12:34:30.670Z,1025.93
2017-03-24T12:35:41.680Z,1025.96
2017-03-24T12:36:52.685Z,1025.86
2017-03-24T12:38:03.682Z,1025.9
2017-03-24T12:39:14.697Z,1025.87
2017-03-24T12:40:25.954Z,1025.8
2017-03-24T12:41:36.958Z,1025.75
2017-03-24T12:42:47.951Z,1025.75
2017-03-24T12:43:58.956Z,1025.76
2017-03-24T12:45:09.955Z,1025.73
2017-03-24T12:46:20.945Z,1025.71
2017-03-24T12:47:31.944Z,1025.74
2017-03-24T12:48:43.144Z,1025.72
2017-03-24T12:49:54.785Z,1025.7
2017-03-24T12:51:05.790Z,1025.67
2017-03-24T12:52:16.787Z,1025.69
2017-03-24T12:53:27.789Z,1025.62
2017-03-24T12:54:38.792Z,1025.56
2017-03-24T12:55:49.806Z,1025.58
2017-03-24T12:57:00.811Z,1025.57
2017-03-24T12:58:11.803Z,1025.53
2017-03-24T12:59:22.792Z,1025.48
2017-03-24T13:00:33.792Z,1025.52
2017-03-24T13:01:45.004Z,1025.53
2017-03-24T13:02:56.015Z,1025.56
2017-03-24T13:04:07.215Z,1025.55
2017-03-24T13:05:18.454Z,1025.58
2017-03-24T13:06:29.456Z,1025.57
2017-03-24T13:07:40.458Z,1025.52
2017-03-24T13:08:51.458Z,1025.58
2017-03-24T13:10:02.663Z,1025.59
2017-03-24T13:11:13.664Z,1025.53
2017-03-24T13:12:24.664Z,1025.56
2017-03-24T13:13:35.858Z,1025.55
2017-03-24T13:14:47.061Z,1025.43
2017-03-24T13:15:58.058Z,1025.42
2017-03-24T13:17:09.064Z,1025.43
2017-03-24T13:18:20.073Z,1025.44
2017-03-24T13:19:31.078Z,1025.48
2017-03-24T13:20:42.086Z,1025.43
2017-03-24T13:21:53.337Z,1025.4
2017-03-24T13:23:04.333Z,1025.4
2017-03-24T13:24:15.341Z,1025.31
2017-03-24T13:25:26.338Z,1025.32
2017-03-24T13:26:37.338Z,1025.22
2017-03-24T13:27:48.336Z,1025.24
2017-03-24T13:28:59.535Z,1025.22
2017-03-24T13:30:10.536Z,1025.21
2017-03-24T13:31:21.740Z,1025.21
2017-03-24T13:32:32.798Z,1025.14
2017-03-24T13:33:44.010Z,1025.14
2017-03-24T13:34:55.220Z,1025.15
2017-03-24T13:36:06.219Z,1025.17
2017-03-24T13:37:17.214Z,1025.15
2017-03-24T13:38:28.253Z,1025.19
2017-03-24T13:39:39.459Z,1025.18
2017-03-24T13:40:50.463Z,1025.12
2017-03-24T13:42:01.667Z,1025.13
2017-03-24T13:43:12.912Z,1025.1
2017-03-24T13:44:23.903Z,1025.11
2017-03-24T13:45:34.939Z,1025.27
2017-03-24T13:46:45.944Z,1025.11
2017-03-24T13:47:56.942Z,1025.14
2017-03-24T13:49:07.943Z,1025.14
2017-03-24T13:50:18.942Z,1025.11
2017-03-24T13:51:29.972Z,1025.1
2017-03-24T13:52:40.970Z,1025.12
2017-03-24T13:53:52.178Z,1025.11
2017-03-24T13:55:03.427Z,1025.14
2017-03-24T13:56:14.422Z,1025.12
2017-03-24T13:57:25.424Z,1025.14
2017-03-24T13:58:36.421Z,1025.14
2017-03-24T13:59:47.413Z,1025.14
2017-03-24T14:00:58.406Z,1025.16
2017-03-24T14:02:09.620Z,1025.08
2017-03-24T14:03:20.625Z,1025.11
2017-03-24T14:04:32.105Z,1025.1
2017-03-24T14:05:43.103Z,1025.14
2017-03-24T14:06:54.112Z,1025.06
2017-03-24T14:08:05.110Z,1025.06
2017-03-24T14:09:16.306Z,1025.03
2017-03-24T14:10:27.305Z,1025.02
2017-03-24T14:11:38.304Z,1025.07
2017-03-24T14:12:49.295Z,1025.08
2017-03-24T14:14:00.498Z,1025.11
2017-03-24T14:15:11.491Z,1025.04
2017-03-24T14:16:22.479Z,1025.12
2017-03-24T14:17:33.484Z,1025.03
2017-03-24T14:18:44.478Z,1025.07
2017-03-24T14:19:55.478Z,1025.05
2017-03-24T14:21:06.729Z,1025.02
2017-03-24T14:22:17.718Z,1025.02